sensor_id;sensor_type;location;lat;lon;timestamp;temperature;humidity
34698;DHT22;61391;50.922;6.928;2023-05-07T00:00:50;15.20;99.90
34698;DHT22;61391;50.922;6.928;2023-05-07T00:03:16;15.20;99.90
34698;DHT22;61391;50.922;6.928;2023-05-07T00:05:42;15.20;99.90
34698;DHT22;61391;50.922;6.928;2023-05-07T00:08:08;15.30;99.90
34698;DHT22;61391;50.922;6.928;2023-05-07T00:10:34;15.50;99.90
34698;DHT22;61391;50.922;6.928;2023-05-07T00:16:21;15.40;99.90
34698;DHT22;61391;50.922;6.928;2023-05-07T00:18:48;15.30;99.90
34698;DHT22;61391;50.922;6.928;2023-05-07T00:21:14;15.30;99.90
34698;DHT22;61391;50.922;6.928;2023-05-07T00:23:39;15.40;99.90
34698;DHT22;61391;50.922;6.928;2023-05-07T00:26:05;15.40;99.90
34698;DHT22;61391;50.922;6.928;2023-05-07T00:28:31;15.50;99.90
34698;DHT22;61391;50.922;6.928;2023-05-07T00:30:56;15.60;99.90
34698;DHT22;61391;50.922;6.928;2023-05-07T00:33:22;15.90;99.90
34698;DHT22;61391;50.922;6.928;2023-05-07T00:35:48;15.80;99.90
34698;DHT22;61391;50.922;6.928;2023-05-07T00:38:14;15.60;99.90
34698;DHT22;61391;50.922;6.928;2023-05-07T00:40:40;15.30;99.90
34698;DHT22;61391;50.922;6.928;2023-05-07T00:43:06;15.20;99.90
34698;DHT22;61391;50.922;6.928;2023-05-07T00:45:32;15.10;99.90
34698;DHT22;61391;50.922;6.928;2023-05-07T00:48:02;15.00;99.90
34698;DHT22;61391;50.922;6.928;2023-05-07T00:50:28;14.90;99.90
34698;DHT22;61391;50.922;6.928;2023-05-07T00:52:55;15.00;99.90
34698;DHT22;61391;50.922;6.928;2023-05-07T00:55:22;14.80;99.90
34698;DHT22;61391;50.922;6.928;2023-05-07T00:57:49;14.80;99.90
34698;DHT22;61391;50.922;6.928;2023-05-07T01:00:15;14.80;99.90
34698;DHT22;61391;50.922;6.928;2023-05-07T01:02:41;14.80;99.90
34698;DHT22;61391;50.922;6.928;2023-05-07T01:05:17;14.80;99.90
34698;DHT22;61391;50.922;6.928;2023-05-07T01:07:44;14.70;99.90
34698;DHT22;61391;50.922;6.928;2023-05-07T01:10:11;14.70;99.90
34698;DHT22;61391;50.922;6.928;2023-05-07T01:12:38;14.70;99.90
34698;DHT22;61391;50.922;6.928;2023-05-07T01:15:06;14.80;99.90
34698;DHT22;61391;50.922;6.928;2023-05-07T01:17:34;14.80;99.90
34698;DHT22;61391;50.922;6.928;2023-05-07T01:20:01;14.90;99.90
34698;DHT22;61391;50.922;6.928;2023-05-07T01:22:37;14.90;99.90
34698;DHT22;61391;50.922;6.928;2023-05-07T01:25:05;15.00;99.90
34698;DHT22;61391;50.922;6.928;2023-05-07T01:27:31;14.90;99.90
34698;DHT22;61391;50.922;6.928;2023-05-07T01:29:58;15.00;99.90
34698;DHT22;61391;50.922;6.928;2023-05-07T01:32:56;15.10;99.90
34698;DHT22;61391;50.922;6.928;2023-05-07T01:35:25;15.10;99.90
34698;DHT22;61391;50.922;6.928;2023-05-07T01:37:52;14.90;99.90
34698;DHT22;61391;50.922;6.928;2023-05-07T01:40:18;14.90;99.90
34698;DHT22;61391;50.922;6.928;2023-05-07T01:42:45;15.10;99.90
34698;DHT22;61391;50.922;6.928;2023-05-07T01:45:11;15.00;99.90
34698;DHT22;61391;50.922;6.928;2023-05-07T01:47:37;15.00;99.90
34698;DHT22;61391;50.922;6.928;2023-05-07T01:50:06;15.30;99.90
34698;DHT22;61391;50.922;6.928;2023-05-07T01:52:33;15.40;99.90
34698;DHT22;61391;50.922;6.928;2023-05-07T01:54:59;15.30;99.90
34698;DHT22;61391;50.922;6.928;2023-05-07T01:57:25;15.40;99.90
34698;DHT22;61391;50.922;6.928;2023-05-07T01:59:51;14.90;99.90
34698;DHT22;61391;50.922;6.928;2023-05-07T02:02:16;15.30;99.90
34698;DHT22;61391;50.922;6.928;2023-05-07T02:04:42;15.30;99.90
34698;DHT22;61391;50.922;6.928;2023-05-07T02:07:07;15.40;99.90
34698;DHT22;61391;50.922;6.928;2023-05-07T02:09:33;15.20;99.90
34698;DHT22;61391;50.922;6.928;2023-05-07T02:11:59;15.00;99.90
34698;DHT22;61391;50.922;6.928;2023-05-07T02:14:25;14.90;99.90
34698;DHT22;61391;50.922;6.928;2023-05-07T02:16:51;14.90;99.90
34698;DHT22;61391;50.922;6.928;2023-05-07T02:19:17;14.80;99.90
34698;DHT22;61391;50.922;6.928;2023-05-07T02:21:43;14.70;99.90
34698;DHT22;61391;50.922;6.928;2023-05-07T02:24:09;14.90;99.90
34698;DHT22;61391;50.922;6.928;2023-05-07T02:26:34;14.90;99.90
34698;DHT22;61391;50.922;6.928;2023-05-07T02:29:00;14.90;99.90
34698;DHT22;61391;50.922;6.928;2023-05-07T02:31:26;14.70;99.90
34698;DHT22;61391;50.922;6.928;2023-05-07T02:33:52;14.70;99.90
34698;DHT22;61391;50.922;6.928;2023-05-07T02:36:18;14.70;99.90
34698;DHT22;61391;50.922;6.928;2023-05-07T02:38:44;14.70;99.90
34698;DHT22;61391;50.922;6.928;2023-05-07T02:41:09;14.70;99.90
34698;DHT22;61391;50.922;6.928;2023-05-07T02:43:37;14.70;99.90
34698;DHT22;61391;50.922;6.928;2023-05-07T02:46:07;14.60;99.90
34698;DHT22;61391;50.922;6.928;2023-05-07T02:48:33;14.40;99.90
34698;DHT22;61391;50.922;6.928;2023-05-07T02:50:59;14.40;99.90
34698;DHT22;61391;50.922;6.928;2023-05-07T02:53:25;14.50;99.90
34698;DHT22;61391;50.922;6.928;2023-05-07T02:55:59;14.40;99.90
34698;DHT22;61391;50.922;6.928;2023-05-07T02:58:25;14.30;99.90
34698;DHT22;61391;50.922;6.928;2023-05-07T03:00:51;14.40;99.90
34698;DHT22;61391;50.922;6.928;2023-05-07T03:03:17;14.50;99.90
34698;DHT22;61391;50.922;6.928;2023-05-07T03:05:43;14.50;99.90
34698;DHT22;61391;50.922;6.928;2023-05-07T03:08:09;14.50;99.90
34698;DHT22;61391;50.922;6.928;2023-05-07T03:10:35;14.50;99.90
34698;DHT22;61391;50.922;6.928;2023-05-07T03:13:01;14.40;99.90
34698;DHT22;61391;50.922;6.928;2023-05-07T03:15:29;14.40;99.90
34698;DHT22;61391;50.922;6.928;2023-05-07T03:17:55;14.30;99.90
34698;DHT22;61391;50.922;6.928;2023-05-07T03:20:20;14.40;99.90
34698;DHT22;61391;50.922;6.928;2023-05-07T03:22:46;14.30;99.90
34698;DHT22;61391;50.922;6.928;2023-05-07T03:25:12;14.20;99.90
34698;DHT22;61391;50.922;6.928;2023-05-07T03:27:39;14.40;99.90
34698;DHT22;61391;50.922;6.928;2023-05-07T03:30:05;14.30;99.90
34698;DHT22;61391;50.922;6.928;2023-05-07T03:36:00;14.30;99.90
34698;DHT22;61391;50.922;6.928;2023-05-07T03:38:26;14.40;99.90
34698;DHT22;61391;50.922;6.928;2023-05-07T03:40:52;14.40;99.90
34698;DHT22;61391;50.922;6.928;2023-05-07T03:43:19;14.50;99.90
34698;DHT22;61391;50.922;6.928;2023-05-07T03:45:46;14.50;99.90
34698;DHT22;61391;50.922;6.928;2023-05-07T03:48:11;14.40;99.90
34698;DHT22;61391;50.922;6.928;2023-05-07T03:50:37;14.40;99.90
34698;DHT22;61391;50.922;6.928;2023-05-07T03:53:03;14.50;99.90
34698;DHT22;61391;50.922;6.928;2023-05-07T03:55:29;14.50;99.90
34698;DHT22;61391;50.922;6.928;2023-05-07T03:57:54;14.30;99.90
34698;DHT22;61391;50.922;6.928;2023-05-07T04:00:22;14.30;99.90
34698;DHT22;61391;50.922;6.928;2023-05-07T04:02:47;14.20;99.90
34698;DHT22;61391;50.922;6.928;2023-05-07T04:05:14;14.30;99.90
34698;DHT22;61391;50.922;6.928;2023-05-07T04:07:40;14.40;99.90
34698;DHT22;61391;50.922;6.928;2023-05-07T04:10:06;14.40;99.90
34698;DHT22;61391;50.922;6.928;2023-05-07T04:12:32;14.30;99.90
34698;DHT22;61391;50.922;6.928;2023-05-07T04:15:33;14.40;99.90
34698;DHT22;61391;50.922;6.928;2023-05-07T04:17:59;14.30;99.90
34698;DHT22;61391;50.922;6.928;2023-05-07T04:20:24;14.40;99.90
34698;DHT22;61391;50.922;6.928;2023-05-07T04:22:50;14.50;99.90
34698;DHT22;61391;50.922;6.928;2023-05-07T04:25:18;14.70;99.90
34698;DHT22;61391;50.922;6.928;2023-05-07T04:27:43;14.80;99.90
34698;DHT22;61391;50.922;6.928;2023-05-07T04:30:09;14.70;99.90
34698;DHT22;61391;50.922;6.928;2023-05-07T04:32:35;14.70;99.90
34698;DHT22;61391;50.922;6.928;2023-05-07T04:35:02;14.70;99.90
34698;DHT22;61391;50.922;6.928;2023-05-07T04:37:28;14.80;99.90
34698;DHT22;61391;50.922;6.928;2023-05-07T04:39:54;14.80;99.90
34698;DHT22;61391;50.922;6.928;2023-05-07T04:42:19;14.80;99.90
34698;DHT22;61391;50.922;6.928;2023-05-07T04:44:45;14.90;99.90
34698;DHT22;61391;50.922;6.928;2023-05-07T04:47:11;14.80;99.90
34698;DHT22;61391;50.922;6.928;2023-05-07T04:49:38;14.90;99.90
34698;DHT22;61391;50.922;6.928;2023-05-07T04:52:03;15.00;99.90
34698;DHT22;61391;50.922;6.928;2023-05-07T04:54:29;15.00;99.90
34698;DHT22;61391;50.922;6.928;2023-05-07T04:56:55;15.10;99.90
34698;DHT22;61391;50.922;6.928;2023-05-07T04:59:21;15.00;99.90
34698;DHT22;61391;50.922;6.928;2023-05-07T05:01:47;15.10;99.90
34698;DHT22;61391;50.922;6.928;2023-05-07T05:04:12;15.20;99.90
34698;DHT22;61391;50.922;6.928;2023-05-07T05:06:38;15.10;99.90
34698;DHT22;61391;50.922;6.928;2023-05-07T05:09:04;15.20;99.90
34698;DHT22;61391;50.922;6.928;2023-05-07T05:11:30;15.20;99.90
34698;DHT22;61391;50.922;6.928;2023-05-07T05:13:56;15.20;99.90
34698;DHT22;61391;50.922;6.928;2023-05-07T05:16:24;15.10;99.90
34698;DHT22;61391;50.922;6.928;2023-05-07T05:18:50;15.10;99.90
34698;DHT22;61391;50.922;6.928;2023-05-07T05:21:17;15.20;99.90
34698;DHT22;61391;50.922;6.928;2023-05-07T05:23:44;15.40;99.90
34698;DHT22;61391;50.922;6.928;2023-05-07T05:26:10;15.40;99.90
34698;DHT22;61391;50.922;6.928;2023-05-07T05:28:36;15.20;99.90
34698;DHT22;61391;50.922;6.928;2023-05-07T05:31:01;15.20;99.90
34698;DHT22;61391;50.922;6.928;2023-05-07T05:33:27;15.40;99.90
34698;DHT22;61391;50.922;6.928;2023-05-07T05:36:15;15.50;99.90
34698;DHT22;61391;50.922;6.928;2023-05-07T05:38:40;15.60;99.90
34698;DHT22;61391;50.922;6.928;2023-05-07T05:41:06;15.50;99.90
34698;DHT22;61391;50.922;6.928;2023-05-07T05:43:31;15.80;99.90
34698;DHT22;61391;50.922;6.928;2023-05-07T05:45:57;15.90;99.90
34698;DHT22;61391;50.922;6.928;2023-05-07T05:48:23;15.90;99.90
34698;DHT22;61391;50.922;6.928;2023-05-07T05:50:49;15.80;99.90
34698;DHT22;61391;50.922;6.928;2023-05-07T05:53:14;15.60;99.90
34698;DHT22;61391;50.922;6.928;2023-05-07T05:55:41;15.60;99.90
34698;DHT22;61391;50.922;6.928;2023-05-07T05:58:07;15.60;99.90
34698;DHT22;61391;50.922;6.928;2023-05-07T06:00:33;15.50;99.90
34698;DHT22;61391;50.922;6.928;2023-05-07T06:02:59;15.60;99.90
34698;DHT22;61391;50.922;6.928;2023-05-07T06:05:25;15.70;99.90
34698;DHT22;61391;50.922;6.928;2023-05-07T06:07:51;15.80;99.90
34698;DHT22;61391;50.922;6.928;2023-05-07T06:10:18;15.70;99.90
34698;DHT22;61391;50.922;6.928;2023-05-07T06:12:43;15.70;99.90
34698;DHT22;61391;50.922;6.928;2023-05-07T06:15:10;15.70;99.90
34698;DHT22;61391;50.922;6.928;2023-05-07T06:17:35;15.80;99.90
34698;DHT22;61391;50.922;6.928;2023-05-07T06:20:01;15.90;99.90
34698;DHT22;61391;50.922;6.928;2023-05-07T06:22:26;16.10;99.90
34698;DHT22;61391;50.922;6.928;2023-05-07T06:24:52;16.20;99.90
34698;DHT22;61391;50.922;6.928;2023-05-07T06:27:18;16.50;99.90
34698;DHT22;61391;50.922;6.928;2023-05-07T06:29:43;16.90;99.90
34698;DHT22;61391;50.922;6.928;2023-05-07T06:32:10;17.20;99.90
34698;DHT22;61391;50.922;6.928;2023-05-07T06:34:37;17.50;99.90
34698;DHT22;61391;50.922;6.928;2023-05-07T06:37:03;17.40;99.90
34698;DHT22;61391;50.922;6.928;2023-05-07T06:39:29;17.30;99.90
34698;DHT22;61391;50.922;6.928;2023-05-07T06:41:56;16.90;99.90
34698;DHT22;61391;50.922;6.928;2023-05-07T06:44:22;16.80;99.90
34698;DHT22;61391;50.922;6.928;2023-05-07T06:46:47;16.60;99.90
34698;DHT22;61391;50.922;6.928;2023-05-07T06:49:13;16.60;99.90
34698;DHT22;61391;50.922;6.928;2023-05-07T06:51:39;16.60;99.90
34698;DHT22;61391;50.922;6.928;2023-05-07T06:54:05;16.70;99.90
34698;DHT22;61391;50.922;6.928;2023-05-07T06:56:31;16.50;99.90
34698;DHT22;61391;50.922;6.928;2023-05-07T06:58:57;17.10;99.90
34698;DHT22;61391;50.922;6.928;2023-05-07T07:01:24;17.10;99.90
34698;DHT22;61391;50.922;6.928;2023-05-07T07:03:50;17.30;99.90
34698;DHT22;61391;50.922;6.928;2023-05-07T07:06:16;17.20;99.90
34698;DHT22;61391;50.922;6.928;2023-05-07T07:08:42;17.80;99.90
34698;DHT22;61391;50.922;6.928;2023-05-07T07:11:08;17.90;99.90
34698;DHT22;61391;50.922;6.928;2023-05-07T07:13:35;17.60;99.90
34698;DHT22;61391;50.922;6.928;2023-05-07T07:16:01;17.90;99.90
34698;DHT22;61391;50.922;6.928;2023-05-07T07:18:26;18.10;99.90
34698;DHT22;61391;50.922;6.928;2023-05-07T07:24:14;18.80;99.90
34698;DHT22;61391;50.922;6.928;2023-05-07T07:26:44;19.20;99.90
34698;DHT22;61391;50.922;6.928;2023-05-07T07:29:10;19.50;99.90
34698;DHT22;61391;50.922;6.928;2023-05-07T07:31:36;18.50;99.90
34698;DHT22;61391;50.922;6.928;2023-05-07T07:34:01;18.40;99.90
34698;DHT22;61391;50.922;6.928;2023-05-07T07:36:27;18.10;99.90
34698;DHT22;61391;50.922;6.928;2023-05-07T07:38:53;18.50;99.90
34698;DHT22;61391;50.922;6.928;2023-05-07T07:41:19;19.30;99.90
34698;DHT22;61391;50.922;6.928;2023-05-07T07:43:45;19.40;99.90
34698;DHT22;61391;50.922;6.928;2023-05-07T07:46:12;20.00;99.90
34698;DHT22;61391;50.922;6.928;2023-05-07T07:48:39;21.10;99.90
34698;DHT22;61391;50.922;6.928;2023-05-07T07:51:05;21.70;99.90
34698;DHT22;61391;50.922;6.928;2023-05-07T07:56:52;21.70;99.90
34698;DHT22;61391;50.922;6.928;2023-05-07T07:59:18;20.80;99.90
34698;DHT22;61391;50.922;6.928;2023-05-07T08:01:44;19.90;99.90
34698;DHT22;61391;50.922;6.928;2023-05-07T08:04:10;19.50;99.90
34698;DHT22;61391;50.922;6.928;2023-05-07T08:06:36;19.30;99.90
34698;DHT22;61391;50.922;6.928;2023-05-07T08:09:02;18.70;99.90
34698;DHT22;61391;50.922;6.928;2023-05-07T08:14:49;19.70;99.90
34698;DHT22;61391;50.922;6.928;2023-05-07T08:17:15;19.10;99.90
34698;DHT22;61391;50.922;6.928;2023-05-07T08:19:42;19.00;99.90
34698;DHT22;61391;50.922;6.928;2023-05-07T08:22:09;19.30;99.90
34698;DHT22;61391;50.922;6.928;2023-05-07T08:24:35;20.00;99.90
34698;DHT22;61391;50.922;6.928;2023-05-07T08:27:01;19.40;99.90
34698;DHT22;61391;50.922;6.928;2023-05-07T08:29:26;20.00;99.90
34698;DHT22;61391;50.922;6.928;2023-05-07T08:31:52;19.70;99.90
34698;DHT22;61391;50.922;6.928;2023-05-07T08:34:18;19.90;99.90
34698;DHT22;61391;50.922;6.928;2023-05-07T08:36:44;19.50;99.90
34698;DHT22;61391;50.922;6.928;2023-05-07T08:39:12;20.20;99.90
34698;DHT22;61391;50.922;6.928;2023-05-07T08:41:38;20.10;99.90
34698;DHT22;61391;50.922;6.928;2023-05-07T08:44:06;20.40;99.90
34698;DHT22;61391;50.922;6.928;2023-05-07T08:46:37;20.70;99.90
34698;DHT22;61391;50.922;6.928;2023-05-07T08:49:04;21.10;99.90
34698;DHT22;61391;50.922;6.928;2023-05-07T08:51:30;20.60;99.90
34698;DHT22;61391;50.922;6.928;2023-05-07T08:53:56;20.90;99.90
34698;DHT22;61391;50.922;6.928;2023-05-07T08:56:24;20.50;99.90
34698;DHT22;61391;50.922;6.928;2023-05-07T08:58:50;20.80;99.90
34698;DHT22;61391;50.922;6.928;2023-05-07T09:01:17;21.10;99.90
34698;DHT22;61391;50.922;6.928;2023-05-07T09:03:46;21.90;99.90
34698;DHT22;61391;50.922;6.928;2023-05-07T09:06:12;21.70;99.90
34698;DHT22;61391;50.922;6.928;2023-05-07T09:08:38;22.00;99.90
34698;DHT22;61391;50.922;6.928;2023-05-07T09:11:03;22.70;99.90
34698;DHT22;61391;50.922;6.928;2023-05-07T09:13:29;23.20;99.90
34698;DHT22;61391;50.922;6.928;2023-05-07T09:15:56;23.60;99.90
34698;DHT22;61391;50.922;6.928;2023-05-07T09:18:23;24.40;99.90
34698;DHT22;61391;50.922;6.928;2023-05-07T09:20:50;24.00;99.90
34698;DHT22;61391;50.922;6.928;2023-05-07T09:23:16;23.20;99.90
34698;DHT22;61391;50.922;6.928;2023-05-07T09:25:41;23.80;99.90
34698;DHT22;61391;50.922;6.928;2023-05-07T09:28:07;24.30;99.90
34698;DHT22;61391;50.922;6.928;2023-05-07T09:30:34;25.20;99.90
34698;DHT22;61391;50.922;6.928;2023-05-07T09:33:02;25.30;99.90
34698;DHT22;61391;50.922;6.928;2023-05-07T09:35:28;26.20;99.90
34698;DHT22;61391;50.922;6.928;2023-05-07T09:37:59;27.40;99.90
34698;DHT22;61391;50.922;6.928;2023-05-07T09:43:53;29.40;99.90
34698;DHT22;61391;50.922;6.928;2023-05-07T09:46:25;31.10;97.00
34698;DHT22;61391;50.922;6.928;2023-05-07T09:48:53;31.40;94.90
34698;DHT22;61391;50.922;6.928;2023-05-07T09:51:28;30.70;95.20
34698;DHT22;61391;50.922;6.928;2023-05-07T09:57:16;28.60;98.30
34698;DHT22;61391;50.922;6.928;2023-05-07T09:59:46;29.60;98.00
34698;DHT22;61391;50.922;6.928;2023-05-07T10:05:34;29.60;95.60
34698;DHT22;61391;50.922;6.928;2023-05-07T10:08:01;26.90;99.90
34698;DHT22;61391;50.922;6.928;2023-05-07T10:10:27;26.30;99.90
34698;DHT22;61391;50.922;6.928;2023-05-07T10:12:54;25.90;99.90
34698;DHT22;61391;50.922;6.928;2023-05-07T10:15:20;26.90;99.90
34698;DHT22;61391;50.922;6.928;2023-05-07T10:17:46;25.60;99.90
34698;DHT22;61391;50.922;6.928;2023-05-07T10:20:13;26.30;99.90
34698;DHT22;61391;50.922;6.928;2023-05-07T10:22:42;28.00;99.90
34698;DHT22;61391;50.922;6.928;2023-05-07T10:25:29;28.70;96.60
34698;DHT22;61391;50.922;6.928;2023-05-07T10:27:58;29.80;95.90
34698;DHT22;61391;50.922;6.928;2023-05-07T10:33:48;30.60;92.30
34698;DHT22;61391;50.922;6.928;2023-05-07T10:42:59;26.30;99.90
34698;DHT22;61391;50.922;6.928;2023-05-07T10:45:27;26.40;99.90
34698;DHT22;61391;50.922;6.928;2023-05-07T10:48:16;28.00;98.40
34698;DHT22;61391;50.922;6.928;2023-05-07T10:50:43;28.00;97.90
34698;DHT22;61391;50.922;6.928;2023-05-07T10:55:49;27.50;97.40
34698;DHT22;61391;50.922;6.928;2023-05-07T11:00:47;28.80;95.00
34698;DHT22;61391;50.922;6.928;2023-05-07T11:03:13;28.70;94.20
34698;DHT22;61391;50.922;6.928;2023-05-07T11:05:41;27.60;96.90
34698;DHT22;61391;50.922;6.928;2023-05-07T11:08:07;27.20;99.00
34698;DHT22;61391;50.922;6.928;2023-05-07T11:10:54;27.70;98.60
34698;DHT22;61391;50.922;6.928;2023-05-07T11:16:24;29.90;94.40
34698;DHT22;61391;50.922;6.928;2023-05-07T11:18:54;31.40;91.50
34698;DHT22;61391;50.922;6.928;2023-05-07T11:21:40;31.40;90.90
34698;DHT22;61391;50.922;6.928;2023-05-07T11:24:09;28.10;93.20
34698;DHT22;61391;50.922;6.928;2023-05-07T11:26:48;27.90;95.00
34698;DHT22;61391;50.922;6.928;2023-05-07T11:29:19;29.10;92.60
34698;DHT22;61391;50.922;6.928;2023-05-07T11:31:52;28.10;93.60
34698;DHT22;61391;50.922;6.928;2023-05-07T11:34:22;25.90;98.20
34698;DHT22;61391;50.922;6.928;2023-05-07T11:36:49;26.90;96.30
34698;DHT22;61391;50.922;6.928;2023-05-07T11:39:25;27.80;95.30
34698;DHT22;61391;50.922;6.928;2023-05-07T11:41:51;25.00;99.90
34698;DHT22;61391;50.922;6.928;2023-05-07T11:44:17;25.30;99.90
34698;DHT22;61391;50.922;6.928;2023-05-07T11:46:44;25.10;99.90
34698;DHT22;61391;50.922;6.928;2023-05-07T11:49:10;25.00;99.50
34698;DHT22;61391;50.922;6.928;2023-05-07T11:51:36;24.10;99.90
34698;DHT22;61391;50.922;6.928;2023-05-07T11:54:03;23.90;99.90
34698;DHT22;61391;50.922;6.928;2023-05-07T11:56:29;23.50;99.90
34698;DHT22;61391;50.922;6.928;2023-05-07T12:02:27;24.50;99.90
34698;DHT22;61391;50.922;6.928;2023-05-07T12:08:16;24.50;99.90
34698;DHT22;61391;50.922;6.928;2023-05-07T12:17:08;24.80;98.70
34698;DHT22;61391;50.922;6.928;2023-05-07T12:19:36;25.30;97.50
34698;DHT22;61391;50.922;6.928;2023-05-07T12:22:03;25.80;97.80
34698;DHT22;61391;50.922;6.928;2023-05-07T12:24:29;26.10;97.60
34698;DHT22;61391;50.922;6.928;2023-05-07T12:26:54;26.20;98.90
34698;DHT22;61391;50.922;6.928;2023-05-07T12:29:23;25.60;98.40
34698;DHT22;61391;50.922;6.928;2023-05-07T12:35:17;25.10;99.90
34698;DHT22;61391;50.922;6.928;2023-05-07T12:37:58;25.50;99.90
34698;DHT22;61391;50.922;6.928;2023-05-07T12:40:46;25.60;99.90
34698;DHT22;61391;50.922;6.928;2023-05-07T12:43:26;25.50;99.90
34698;DHT22;61391;50.922;6.928;2023-05-07T12:49:36;25.40;99.90
34698;DHT22;61391;50.922;6.928;2023-05-07T12:55:29;24.90;99.90
34698;DHT22;61391;50.922;6.928;2023-05-07T12:57:55;24.70;99.90
34698;DHT22;61391;50.922;6.928;2023-05-07T13:00:38;24.60;99.90
34698;DHT22;61391;50.922;6.928;2023-05-07T13:03:04;24.60;99.90
34698;DHT22;61391;50.922;6.928;2023-05-07T13:05:33;24.50;99.90
34698;DHT22;61391;50.922;6.928;2023-05-07T13:07:59;24.30;99.90
34698;DHT22;61391;50.922;6.928;2023-05-07T13:10:27;24.10;99.90
34698;DHT22;61391;50.922;6.928;2023-05-07T13:12:58;24.00;99.90
34698;DHT22;61391;50.922;6.928;2023-05-07T13:15:23;24.00;99.90
34698;DHT22;61391;50.922;6.928;2023-05-07T13:21:11;23.90;99.90
34698;DHT22;61391;50.922;6.928;2023-05-07T13:27:06;24.10;99.90
34698;DHT22;61391;50.922;6.928;2023-05-07T13:32:55;24.20;99.90
34698;DHT22;61391;50.922;6.928;2023-05-07T13:35:21;24.50;99.90
34698;DHT22;61391;50.922;6.928;2023-05-07T13:41:09;24.50;99.90
34698;DHT22;61391;50.922;6.928;2023-05-07T13:43:35;24.70;99.90
34698;DHT22;61391;50.922;6.928;2023-05-07T13:46:01;24.70;99.90
34698;DHT22;61391;50.922;6.928;2023-05-07T13:48:26;24.70;99.90
34698;DHT22;61391;50.922;6.928;2023-05-07T13:50:53;24.70;99.90
34698;DHT22;61391;50.922;6.928;2023-05-07T13:53:19;24.40;99.90
34698;DHT22;61391;50.922;6.928;2023-05-07T13:55:45;24.20;99.90
34698;DHT22;61391;50.922;6.928;2023-05-07T13:58:11;24.00;99.90
34698;DHT22;61391;50.922;6.928;2023-05-07T14:03:59;23.90;99.90
34698;DHT22;61391;50.922;6.928;2023-05-07T14:06:25;24.00;99.90
34698;DHT22;61391;50.922;6.928;2023-05-07T14:12:12;24.30;99.90
34698;DHT22;61391;50.922;6.928;2023-05-07T14:18:01;24.10;99.90
34698;DHT22;61391;50.922;6.928;2023-05-07T14:20:27;24.10;99.90
34698;DHT22;61391;50.922;6.928;2023-05-07T14:26:15;24.00;99.90
34698;DHT22;61391;50.922;6.928;2023-05-07T14:32:03;23.70;99.90
34698;DHT22;61391;50.922;6.928;2023-05-07T14:34:29;23.50;99.90
34698;DHT22;61391;50.922;6.928;2023-05-07T14:36:55;23.60;99.90
34698;DHT22;61391;50.922;6.928;2023-05-07T14:42:50;23.80;99.90
34698;DHT22;61391;50.922;6.928;2023-05-07T14:45:16;24.00;99.90
34698;DHT22;61391;50.922;6.928;2023-05-07T14:47:41;24.00;99.90
34698;DHT22;61391;50.922;6.928;2023-05-07T14:50:07;24.10;99.90
34698;DHT22;61391;50.922;6.928;2023-05-07T14:52:52;24.00;99.90
34698;DHT22;61391;50.922;6.928;2023-05-07T14:58:39;23.90;99.90
34698;DHT22;61391;50.922;6.928;2023-05-07T15:01:05;24.00;99.90
34698;DHT22;61391;50.922;6.928;2023-05-07T15:03:31;23.80;99.90
34698;DHT22;61391;50.922;6.928;2023-05-07T15:05:56;23.80;99.90
34698;DHT22;61391;50.922;6.928;2023-05-07T15:08:22;23.60;99.90
34698;DHT22;61391;50.922;6.928;2023-05-07T15:10:48;23.50;99.90
34698;DHT22;61391;50.922;6.928;2023-05-07T15:13:14;23.20;99.90
34698;DHT22;61391;50.922;6.928;2023-05-07T15:15:41;23.00;99.90
34698;DHT22;61391;50.922;6.928;2023-05-07T15:18:07;22.90;99.90
34698;DHT22;61391;50.922;6.928;2023-05-07T15:20:33;22.80;99.90
34698;DHT22;61391;50.922;6.928;2023-05-07T15:22:58;22.80;99.90
34698;DHT22;61391;50.922;6.928;2023-05-07T15:25:24;22.90;99.90
34698;DHT22;61391;50.922;6.928;2023-05-07T15:27:51;23.00;99.90
34698;DHT22;61391;50.922;6.928;2023-05-07T15:33:39;23.40;99.90
34698;DHT22;61391;50.922;6.928;2023-05-07T15:36:06;23.50;99.90
34698;DHT22;61391;50.922;6.928;2023-05-07T15:41:53;23.70;99.90
34698;DHT22;61391;50.922;6.928;2023-05-07T15:44:19;23.70;99.90
34698;DHT22;61391;50.922;6.928;2023-05-07T15:50:10;23.80;99.90
34698;DHT22;61391;50.922;6.928;2023-05-07T15:55:57;23.70;99.90
34698;DHT22;61391;50.922;6.928;2023-05-07T15:58:23;23.60;99.90
34698;DHT22;61391;50.922;6.928;2023-05-07T16:00:49;23.40;99.90
34698;DHT22;61391;50.922;6.928;2023-05-07T16:03:14;23.30;99.90
34698;DHT22;61391;50.922;6.928;2023-05-07T16:09:02;23.30;99.90
34698;DHT22;61391;50.922;6.928;2023-05-07T16:11:28;23.20;99.90
34698;DHT22;61391;50.922;6.928;2023-05-07T16:17:11;22.60;99.90
34698;DHT22;61391;50.922;6.928;2023-05-07T16:19:36;22.20;99.90
34698;DHT22;61391;50.922;6.928;2023-05-07T16:22:02;22.00;99.90
34698;DHT22;61391;50.922;6.928;2023-05-07T16:24:28;21.60;99.90
34698;DHT22;61391;50.922;6.928;2023-05-07T16:26:55;21.80;99.90
34698;DHT22;61391;50.922;6.928;2023-05-07T16:29:20;21.90;99.90
34698;DHT22;61391;50.922;6.928;2023-05-07T16:35:09;22.00;99.90
34698;DHT22;61391;50.922;6.928;2023-05-07T16:37:35;22.30;99.90
34698;DHT22;61391;50.922;6.928;2023-05-07T16:40:01;22.20;99.90
34698;DHT22;61391;50.922;6.928;2023-05-07T16:42:33;21.90;99.90
34698;DHT22;61391;50.922;6.928;2023-05-07T16:44:59;22.00;99.90
34698;DHT22;61391;50.922;6.928;2023-05-07T16:50:47;21.80;99.90
34698;DHT22;61391;50.922;6.928;2023-05-07T16:56:35;21.40;99.90
34698;DHT22;61391;50.922;6.928;2023-05-07T16:59:01;20.70;99.90
34698;DHT22;61391;50.922;6.928;2023-05-07T17:01:26;20.30;99.90
34698;DHT22;61391;50.922;6.928;2023-05-07T17:07:19;20.50;99.90
34698;DHT22;61391;50.922;6.928;2023-05-07T17:09:45;20.20;99.90
34698;DHT22;61391;50.922;6.928;2023-05-07T17:15:33;19.90;99.90
34698;DHT22;61391;50.922;6.928;2023-05-07T17:17:58;20.10;99.90
34698;DHT22;61391;50.922;6.928;2023-05-07T17:20:27;20.10;99.90
34698;DHT22;61391;50.922;6.928;2023-05-07T17:22:53;20.20;99.90
34698;DHT22;61391;50.922;6.928;2023-05-07T17:25:18;20.30;99.90
34698;DHT22;61391;50.922;6.928;2023-05-07T17:27:44;20.00;99.90
34698;DHT22;61391;50.922;6.928;2023-05-07T17:30:10;20.10;99.90
34698;DHT22;61391;50.922;6.928;2023-05-07T17:32:37;20.10;99.90
34698;DHT22;61391;50.922;6.928;2023-05-07T17:35:03;20.10;99.90
34698;DHT22;61391;50.922;6.928;2023-05-07T17:37:29;20.20;99.90
34698;DHT22;61391;50.922;6.928;2023-05-07T17:39:54;20.10;99.90
34698;DHT22;61391;50.922;6.928;2023-05-07T17:42:20;19.80;99.90
34698;DHT22;61391;50.922;6.928;2023-05-07T17:44:46;20.00;99.90
34698;DHT22;61391;50.922;6.928;2023-05-07T17:47:11;20.00;99.90
34698;DHT22;61391;50.922;6.928;2023-05-07T17:49:39;20.00;99.90
34698;DHT22;61391;50.922;6.928;2023-05-07T17:55:26;19.80;99.90